sensor_id;sensor_type;location;lat;lon;timestamp;P1;durP1;ratioP1;P2;durP2;ratioP2
8183;SDS011;4133;48.752;9.088;2022-09-02T00:01:31;4.97;;;4.17;;
8183;SDS011;4133;48.752;9.088;2022-09-02T00:04:03;4.90;;;4.37;;
8183;SDS011;4133;48.752;9.088;2022-09-02T00:06:30;6.00;;;4.70;;
8183;SDS011;4133;48.752;9.088;2022-09-02T00:08:57;4.87;;;4.47;;
8183;SDS011;4133;48.752;9.088;2022-09-02T00:11:27;7.10;;;4.40;;
8183;SDS011;4133;48.752;9.088;2022-09-02T00:13:53;5.97;;;4.43;;
8183;SDS011;4133;48.752;9.088;2022-09-02T00:16:19;4.97;;;4.57;;
8183;SDS011;4133;48.752;9.088;2022-09-02T00:18:47;5.73;;;4.80;;
8183;SDS011;4133;48.752;9.088;2022-09-02T00:21:14;6.63;;;4.77;;
8183;SDS011;4133;48.752;9.088;2022-09-02T00:23:41;5.33;;;4.83;;
8183;SDS011;4133;48.752;9.088;2022-09-02T00:26:07;4.90;;;4.40;;
8183;SDS011;4133;48.752;9.088;2022-09-02T00:28:33;5.20;;;4.70;;
8183;SDS011;4133;48.752;9.088;2022-09-02T00:31:00;5.07;;;4.50;;
8183;SDS011;4133;48.752;9.088;2022-09-02T00:33:26;4.97;;;4.50;;
8183;SDS011;4133;48.752;9.088;2022-09-02T00:35:52;7.23;;;4.33;;
8183;SDS011;4133;48.752;9.088;2022-09-02T00:38:18;5.23;;;4.83;;
8183;SDS011;4133;48.752;9.088;2022-09-02T00:40:45;4.73;;;4.00;;
8183;SDS011;4133;48.752;9.088;2022-09-02T00:43:11;4.70;;;4.30;;
8183;SDS011;4133;48.752;9.088;2022-09-02T00:45:37;4.87;;;4.47;;
8183;SDS011;4133;48.752;9.088;2022-09-02T00:48:04;3.80;;;3.50;;
8183;SDS011;4133;48.752;9.088;2022-09-02T00:50:31;4.20;;;3.90;;
8183;SDS011;4133;48.752;9.088;2022-09-02T00:52:59;4.30;;;3.90;;
8183;SDS011;4133;48.752;9.088;2022-09-02T00:55:32;4.83;;;3.93;;
8183;SDS011;4133;48.752;9.088;2022-09-02T00:58:02;5.37;;;4.83;;
8183;SDS011;4133;48.752;9.088;2022-09-02T01:00:36;4.70;;;4.20;;
8183;SDS011;4133;48.752;9.088;2022-09-02T01:03:07;4.50;;;4.10;;
8183;SDS011;4133;48.752;9.088;2022-09-02T01:05:34;4.30;;;4.00;;
8183;SDS011;4133;48.752;9.088;2022-09-02T01:08:01;4.60;;;4.00;;
8183;SDS011;4133;48.752;9.088;2022-09-02T01:10:32;4.60;;;3.50;;
8183;SDS011;4133;48.752;9.088;2022-09-02T01:12:59;4.50;;;4.10;;
8183;SDS011;4133;48.752;9.088;2022-09-02T01:15:26;4.23;;;3.93;;
8183;SDS011;4133;48.752;9.088;2022-09-02T01:17:55;4.90;;;3.93;;
8183;SDS011;4133;48.752;9.088;2022-09-02T01:20:23;4.63;;;3.97;;
8183;SDS011;4133;48.752;9.088;2022-09-02T01:22:49;3.90;;;3.60;;
8183;SDS011;4133;48.752;9.088;2022-09-02T01:25:20;4.57;;;4.17;;
8183;SDS011;4133;48.752;9.088;2022-09-02T01:27:47;5.30;;;3.80;;
8183;SDS011;4133;48.752;9.088;2022-09-02T01:30:15;4.80;;;3.40;;
8183;SDS011;4133;48.752;9.088;2022-09-02T01:32:41;4.23;;;3.80;;
8183;SDS011;4133;48.752;9.088;2022-09-02T01:35:08;4.73;;;3.90;;
8183;SDS011;4133;48.752;9.088;2022-09-02T01:37:35;4.23;;;3.83;;
8183;SDS011;4133;48.752;9.088;2022-09-02T01:40:04;4.97;;;4.23;;
8183;SDS011;4133;48.752;9.088;2022-09-02T01:42:30;5.53;;;4.10;;
8183;SDS011;4133;48.752;9.088;2022-09-02T01:44:56;5.93;;;4.27;;
8183;SDS011;4133;48.752;9.088;2022-09-02T01:47:23;4.50;;;4.10;;
8183;SDS011;4133;48.752;9.088;2022-09-02T01:49:49;5.63;;;3.93;;
8183;SDS011;4133;48.752;9.088;2022-09-02T01:52:15;6.50;;;3.97;;
8183;SDS011;4133;48.752;9.088;2022-09-02T01:54:42;4.63;;;4.23;;
8183;SDS011;4133;48.752;9.088;2022-09-02T01:57:08;5.47;;;3.90;;
8183;SDS011;4133;48.752;9.088;2022-09-02T01:59:34;5.03;;;4.00;;
8183;SDS011;4133;48.752;9.088;2022-09-02T02:02:00;4.97;;;4.10;;
8183;SDS011;4133;48.752;9.088;2022-09-02T02:04:26;4.67;;;4.27;;
8183;SDS011;4133;48.752;9.088;2022-09-02T02:06:53;4.47;;;4.07;;
8183;SDS011;4133;48.752;9.088;2022-09-02T02:09:20;5.53;;;4.20;;
8183;SDS011;4133;48.752;9.088;2022-09-02T02:11:46;4.33;;;3.93;;
8183;SDS011;4133;48.752;9.088;2022-09-02T02:14:13;4.47;;;4.07;;
8183;SDS011;4133;48.752;9.088;2022-09-02T02:16:39;4.33;;;4.03;;
8183;SDS011;4133;48.752;9.088;2022-09-02T02:19:05;4.77;;;3.73;;
8183;SDS011;4133;48.752;9.088;2022-09-02T02:21:31;5.50;;;3.93;;
8183;SDS011;4133;48.752;9.088;2022-09-02T02:23:57;4.53;;;3.77;;
8183;SDS011;4133;48.752;9.088;2022-09-02T02:26:27;4.40;;;4.00;;
8183;SDS011;4133;48.752;9.088;2022-09-02T02:28:53;4.47;;;4.07;;
8183;SDS011;4133;48.752;9.088;2022-09-02T02:31:19;4.60;;;4.00;;
8183;SDS011;4133;48.752;9.088;2022-09-02T02:33:45;4.67;;;4.37;;
8183;SDS011;4133;48.752;9.088;2022-09-02T02:36:12;6.23;;;3.87;;
8183;SDS011;4133;48.752;9.088;2022-09-02T02:38:38;4.77;;;3.70;;
8183;SDS011;4133;48.752;9.088;2022-09-02T02:41:05;5.03;;;4.10;;
8183;SDS011;4133;48.752;9.088;2022-09-02T02:43:32;4.70;;;4.30;;
8183;SDS011;4133;48.752;9.088;2022-09-02T02:45:58;4.93;;;3.83;;
8183;SDS011;4133;48.752;9.088;2022-09-02T02:48:24;4.57;;;4.17;;
8183;SDS011;4133;48.752;9.088;2022-09-02T02:50:50;4.60;;;4.20;;
8183;SDS011;4133;48.752;9.088;2022-09-02T02:53:16;7.53;;;3.83;;
8183;SDS011;4133;48.752;9.088;2022-09-02T02:55:42;4.87;;;4.13;;
8183;SDS011;4133;48.752;9.088;2022-09-02T02:58:08;6.80;;;3.80;;
8183;SDS011;4133;48.752;9.088;2022-09-02T03:00:35;4.27;;;3.97;;
8183;SDS011;4133;48.752;9.088;2022-09-02T03:03:03;5.20;;;4.00;;
8183;SDS011;4133;48.752;9.088;2022-09-02T03:05:34;5.60;;;4.07;;
8183;SDS011;4133;48.752;9.088;2022-09-02T03:08:02;4.60;;;3.93;;
8183;SDS011;4133;48.752;9.088;2022-09-02T03:10:28;4.33;;;4.03;;
8183;SDS011;4133;48.752;9.088;2022-09-02T03:12:56;4.63;;;3.70;;
8183;SDS011;4133;48.752;9.088;2022-09-02T03:15:23;4.43;;;4.03;;
8183;SDS011;4133;48.752;9.088;2022-09-02T03:17:49;4.20;;;3.80;;
8183;SDS011;4133;48.752;9.088;2022-09-02T03:20:16;4.27;;;3.97;;
8183;SDS011;4133;48.752;9.088;2022-09-02T03:22:43;4.57;;;4.00;;
8183;SDS011;4133;48.752;9.088;2022-09-02T03:25:10;4.77;;;4.00;;
8183;SDS011;4133;48.752;9.088;2022-09-02T03:27:37;4.53;;;3.97;;
8183;SDS011;4133;48.752;9.088;2022-09-02T03:30:04;4.20;;;3.80;;
8183;SDS011;4133;48.752;9.088;2022-09-02T03:32:30;4.10;;;3.70;;
8183;SDS011;4133;48.752;9.088;2022-09-02T03:34:56;4.60;;;4.13;;
8183;SDS011;4133;48.752;9.088;2022-09-02T03:37:22;3.90;;;3.60;;
8183;SDS011;4133;48.752;9.088;2022-09-02T03:39:48;5.40;;;4.10;;
8183;SDS011;4133;48.752;9.088;2022-09-02T03:42:14;5.30;;;4.07;;
8183;SDS011;4133;48.752;9.088;2022-09-02T03:44:40;5.47;;;3.83;;
8183;SDS011;4133;48.752;9.088;2022-09-02T03:47:06;7.13;;;4.07;;
8183;SDS011;4133;48.752;9.088;2022-09-02T03:49:33;4.90;;;3.87;;
8183;SDS011;4133;48.752;9.088;2022-09-02T03:51:59;4.30;;;3.57;;
8183;SDS011;4133;48.752;9.088;2022-09-02T03:54:25;3.80;;;3.50;;
8183;SDS011;4133;48.752;9.088;2022-09-02T03:56:51;3.80;;;3.40;;
8183;SDS011;4133;48.752;9.088;2022-09-02T03:59:17;3.80;;;3.50;;
8183;SDS011;4133;48.752;9.088;2022-09-02T04:01:43;4.30;;;3.90;;
8183;SDS011;4133;48.752;9.088;2022-09-02T04:04:10;4.10;;;3.80;;
8183;SDS011;4133;48.752;9.088;2022-09-02T04:06:38;4.50;;;3.80;;
8183;SDS011;4133;48.752;9.088;2022-09-02T04:09:04;7.87;;;4.20;;
8183;SDS011;4133;48.752;9.088;2022-09-02T04:11:30;5.40;;;3.70;;
8183;SDS011;4133;48.752;9.088;2022-09-02T04:13:57;4.23;;;3.80;;
8183;SDS011;4133;48.752;9.088;2022-09-02T04:22:30;4.07;;;3.67;;
8183;SDS011;4133;48.752;9.088;2022-09-02T04:24:56;3.63;;;3.33;;
8183;SDS011;4133;48.752;9.088;2022-09-02T04:27:22;3.53;;;3.20;;
8183;SDS011;4133;48.752;9.088;2022-09-02T04:29:48;4.10;;;3.77;;
8183;SDS011;4133;48.752;9.088;2022-09-02T04:32:14;4.00;;;3.63;;
8183;SDS011;4133;48.752;9.088;2022-09-02T04:34:40;4.03;;;3.47;;
8183;SDS011;4133;48.752;9.088;2022-09-02T04:37:07;5.80;;;3.57;;
8183;SDS011;4133;48.752;9.088;2022-09-02T04:39:33;5.07;;;3.33;;
8183;SDS011;4133;48.752;9.088;2022-09-02T04:41:59;5.73;;;3.83;;
8183;SDS011;4133;48.752;9.088;2022-09-02T04:44:25;3.93;;;3.57;;
8183;SDS011;4133;48.752;9.088;2022-09-02T04:46:51;3.77;;;3.30;;
8183;SDS011;4133;48.752;9.088;2022-09-02T04:49:17;5.13;;;3.23;;
8183;SDS011;4133;48.752;9.088;2022-09-02T04:51:43;3.43;;;3.13;;
8183;SDS011;4133;48.752;9.088;2022-09-02T04:54:09;3.90;;;3.60;;
8183;SDS011;4133;48.752;9.088;2022-09-02T04:56:35;5.43;;;3.30;;
8183;SDS011;4133;48.752;9.088;2022-09-02T04:59:02;3.67;;;3.37;;
8183;SDS011;4133;48.752;9.088;2022-09-02T05:01:29;8.33;;;3.30;;
8183;SDS011;4133;48.752;9.088;2022-09-02T05:03:59;5.80;;;3.80;;
8183;SDS011;4133;48.752;9.088;2022-09-02T05:06:27;5.93;;;3.90;;
8183;SDS011;4133;48.752;9.088;2022-09-02T05:08:54;7.40;;;3.53;;
8183;SDS011;4133;48.752;9.088;2022-09-02T05:11:22;5.40;;;3.93;;
8183;SDS011;4133;48.752;9.088;2022-09-02T05:13:49;4.50;;;4.10;;
8183;SDS011;4133;48.752;9.088;2022-09-02T05:16:23;4.33;;;3.90;;
8183;SDS011;4133;48.752;9.088;2022-09-02T05:18:50;4.10;;;3.70;;
8183;SDS011;4133;48.752;9.088;2022-09-02T05:21:17;7.43;;;3.50;;
8183;SDS011;4133;48.752;9.088;2022-09-02T05:23:43;3.80;;;3.50;;
8183;SDS011;4133;48.752;9.088;2022-09-02T05:26:09;3.70;;;3.40;;
8183;SDS011;4133;48.752;9.088;2022-09-02T05:28:37;5.17;;;3.60;;
8183;SDS011;4133;48.752;9.088;2022-09-02T05:31:04;5.07;;;4.07;;
8183;SDS011;4133;48.752;9.088;2022-09-02T05:33:31;4.40;;;4.00;;
8183;SDS011;4133;48.752;9.088;2022-09-02T05:35:57;4.50;;;4.10;;
8183;SDS011;4133;48.752;9.088;2022-09-02T05:38:24;9.27;;;4.20;;
8183;SDS011;4133;48.752;9.088;2022-09-02T05:40:50;4.20;;;3.80;;
8183;SDS011;4133;48.752;9.088;2022-09-02T05:43:16;3.97;;;3.67;;
8183;SDS011;4133;48.752;9.088;2022-09-02T05:45:42;4.60;;;4.20;;
8183;SDS011;4133;48.752;9.088;2022-09-02T05:48:08;4.17;;;3.77;;
8183;SDS011;4133;48.752;9.088;2022-09-02T05:50:52;6.43;;;4.13;;
8183;SDS011;4133;48.752;9.088;2022-09-02T05:53:18;7.53;;;4.00;;
8183;SDS011;4133;48.752;9.088;2022-09-02T05:55:44;4.00;;;3.60;;
8183;SDS011;4133;48.752;9.088;2022-09-02T05:58:11;8.07;;;3.80;;
8183;SDS011;4133;48.752;9.088;2022-09-02T06:00:37;5.63;;;4.03;;
8183;SDS011;4133;48.752;9.088;2022-09-02T06:03:04;11.13;;;3.90;;
8183;SDS011;4133;48.752;9.088;2022-09-02T06:05:30;4.60;;;3.33;;
8183;SDS011;4133;48.752;9.088;2022-09-02T06:07:56;3.97;;;3.57;;
8183;SDS011;4133;48.752;9.088;2022-09-02T06:10:22;3.97;;;3.60;;
8183;SDS011;4133;48.752;9.088;2022-09-02T06:12:48;4.03;;;3.33;;
8183;SDS011;4133;48.752;9.088;2022-09-02T06:15:14;5.43;;;3.50;;
8183;SDS011;4133;48.752;9.088;2022-09-02T06:17:41;9.73;;;3.50;;
8183;SDS011;4133;48.752;9.088;2022-09-02T06:20:07;4.63;;;4.23;;
8183;SDS011;4133;48.752;9.088;2022-09-02T06:22:33;5.60;;;3.33;;
8183;SDS011;4133;48.752;9.088;2022-09-02T06:24:59;4.00;;;3.37;;
8183;SDS011;4133;48.752;9.088;2022-09-02T06:27:25;3.23;;;2.93;;
8183;SDS011;4133;48.752;9.088;2022-09-02T06:29:51;3.67;;;2.80;;
8183;SDS011;4133;48.752;9.088;2022-09-02T06:32:17;3.97;;;3.17;;
8183;SDS011;4133;48.752;9.088;2022-09-02T06:34:44;6.27;;;2.70;;
8183;SDS011;4133;48.752;9.088;2022-09-02T06:37:10;4.10;;;2.27;;
8183;SDS011;4133;48.752;9.088;2022-09-02T06:39:36;3.10;;;2.50;;
8183;SDS011;4133;48.752;9.088;2022-09-02T06:42:02;3.30;;;2.57;;
8183;SDS011;4133;48.752;9.088;2022-09-02T06:44:28;3.53;;;2.53;;
8183;SDS011;4133;48.752;9.088;2022-09-02T06:46:55;3.97;;;2.30;;
8183;SDS011;4133;48.752;9.088;2022-09-02T06:49:22;3.10;;;2.10;;
8183;SDS011;4133;48.752;9.088;2022-09-02T06:51:49;4.10;;;2.37;;
8183;SDS011;4133;48.752;9.088;2022-09-02T06:54:17;3.17;;;2.23;;
8183;SDS011;4133;48.752;9.088;2022-09-02T06:56:43;2.40;;;2.20;;
8183;SDS011;4133;48.752;9.088;2022-09-02T06:59:10;2.47;;;2.27;;
8183;SDS011;4133;48.752;9.088;2022-09-02T07:01:36;3.43;;;2.50;;
8183;SDS011;4133;48.752;9.088;2022-09-02T07:04:04;7.53;;;2.30;;
8183;SDS011;4133;48.752;9.088;2022-09-02T07:06:59;2.47;;;2.23;;
8183;SDS011;4133;48.752;9.088;2022-09-02T07:09:26;2.17;;;1.80;;
8183;SDS011;4133;48.752;9.088;2022-09-02T07:11:56;2.53;;;1.97;;
8183;SDS011;4133;48.752;9.088;2022-09-02T07:14:22;3.30;;;1.90;;
8183;SDS011;4133;48.752;9.088;2022-09-02T07:16:49;2.00;;;1.90;;
8183;SDS011;4133;48.752;9.088;2022-09-02T07:19:16;3.80;;;1.70;;
8183;SDS011;4133;48.752;9.088;2022-09-02T07:21:43;2.23;;;2.03;;
8183;SDS011;4133;48.752;9.088;2022-09-02T07:24:10;3.10;;;2.27;;
8183;SDS011;4133;48.752;9.088;2022-09-02T07:26:36;2.57;;;2.00;;
8183;SDS011;4133;48.752;9.088;2022-09-02T07:29:04;4.17;;;2.07;;
8183;SDS011;4133;48.752;9.088;2022-09-02T07:31:33;3.67;;;1.80;;
8183;SDS011;4133;48.752;9.088;2022-09-02T07:33:59;2.70;;;1.80;;
8183;SDS011;4133;48.752;9.088;2022-09-02T07:36:26;2.30;;;1.80;;
8183;SDS011;4133;48.752;9.088;2022-09-02T07:38:52;3.77;;;2.27;;
8183;SDS011;4133;48.752;9.088;2022-09-02T07:41:21;2.73;;;1.70;;
8183;SDS011;4133;48.752;9.088;2022-09-02T07:43:47;3.40;;;1.93;;
8183;SDS011;4133;48.752;9.088;2022-09-02T07:46:18;1.83;;;1.67;;
8183;SDS011;4133;48.752;9.088;2022-09-02T07:48:50;2.10;;;1.73;;
8183;SDS011;4133;48.752;9.088;2022-09-02T07:51:17;1.93;;;1.73;;
8183;SDS011;4133;48.752;9.088;2022-09-02T07:53:43;5.23;;;1.50;;
8183;SDS011;4133;48.752;9.088;2022-09-02T07:56:15;1.60;;;1.43;;
8183;SDS011;4133;48.752;9.088;2022-09-02T07:58:42;3.27;;;1.80;;
8183;SDS011;4133;48.752;9.088;2022-09-02T08:01:09;2.50;;;1.80;;
8183;SDS011;4133;48.752;9.088;2022-09-02T08:03:36;2.67;;;1.60;;
8183;SDS011;4133;48.752;9.088;2022-09-02T08:06:04;3.30;;;1.40;;
8183;SDS011;4133;48.752;9.088;2022-09-02T08:08:30;5.97;;;1.70;;
8183;SDS011;4133;48.752;9.088;2022-09-02T08:10:56;6.67;;;1.90;;
8183;SDS011;4133;48.752;9.088;2022-09-02T08:13:22;2.97;;;1.20;;
8183;SDS011;4133;48.752;9.088;2022-09-02T08:15:49;3.83;;;2.20;;
8183;SDS011;4133;48.752;9.088;2022-09-02T08:18:15;4.70;;;1.70;;
8183;SDS011;4133;48.752;9.088;2022-09-02T08:20:41;1.70;;;1.27;;
8183;SDS011;4133;48.752;9.088;2022-09-02T08:23:07;2.37;;;1.43;;
8183;SDS011;4133;48.752;9.088;2022-09-02T08:25:33;2.10;;;1.43;;
8183;SDS011;4133;48.752;9.088;2022-09-02T08:28:00;2.25;;;1.30;;
8183;SDS011;4133;48.752;9.088;2022-09-02T08:30:26;2.33;;;1.23;;
8183;SDS011;4133;48.752;9.088;2022-09-02T08:32:52;1.43;;;1.33;;
8183;SDS011;4133;48.752;9.088;2022-09-02T08:35:18;4.23;;;1.33;;
8183;SDS011;4133;48.752;9.088;2022-09-02T08:37:47;1.93;;;1.33;;
8183;SDS011;4133;48.752;9.088;2022-09-02T08:40:17;10.43;;;2.27;;
8183;SDS011;4133;48.752;9.088;2022-09-02T08:42:45;2.07;;;1.50;;
8183;SDS011;4133;48.752;9.088;2022-09-02T08:45:33;6.57;;;1.40;;
8183;SDS011;4133;48.752;9.088;2022-09-02T08:48:03;2.70;;;1.30;;
8183;SDS011;4133;48.752;9.088;2022-09-02T08:50:32;1.80;;;1.33;;
8183;SDS011;4133;48.752;9.088;2022-09-02T08:55:50;1.37;;;1.20;;
8183;SDS011;4133;48.752;9.088;2022-09-02T08:58:21;2.28;;;1.05;;
8183;SDS011;4133;48.752;9.088;2022-09-02T09:00:54;1.48;;;1.38;;
8183;SDS011;4133;48.752;9.088;2022-09-02T09:05:55;1.33;;;1.10;;
8183;SDS011;4133;48.752;9.088;2022-09-02T09:08:32;4.18;;;1.25;;
8183;SDS011;4133;48.752;9.088;2022-09-02T09:13:43;2.20;;;1.10;;
8183;SDS011;4133;48.752;9.088;2022-09-02T09:16:26;3.50;;;1.30;;
8183;SDS011;4133;48.752;9.088;2022-09-02T09:18:56;3.58;;;1.02;;
8183;SDS011;4133;48.752;9.088;2022-09-02T09:21:24;4.35;;;1.83;;
8183;SDS011;4133;48.752;9.088;2022-09-02T09:23:51;2.05;;;1.27;;
8183;SDS011;4133;48.752;9.088;2022-09-02T09:26:25;3.78;;;1.30;;
8183;SDS011;4133;48.752;9.088;2022-09-02T09:28:51;4.20;;;1.13;;
8183;SDS011;4133;48.752;9.088;2022-09-02T09:31:20;1.88;;;1.20;;
8183;SDS011;4133;48.752;9.088;2022-09-02T09:42:10;1.67;;;1.20;;
8183;SDS011;4133;48.752;9.088;2022-09-02T09:44:47;1.55;;;1.25;;
8183;SDS011;4133;48.752;9.088;2022-09-02T09:47:17;3.13;;;1.40;;
8183;SDS011;4133;48.752;9.088;2022-09-02T09:50:26;5.65;;;1.10;;
8183;SDS011;4133;48.752;9.088;2022-09-02T09:52:33;4.18;;;1.65;;
8183;SDS011;4133;48.752;9.088;2022-09-02T09:57:31;1.98;;;1.30;;
8183;SDS011;4133;48.752;9.088;2022-09-02T09:59:57;2.05;;;1.20;;
8183;SDS011;4133;48.752;9.088;2022-09-02T10:02:26;1.10;;;1.00;;
8183;SDS011;4133;48.752;9.088;2022-09-02T10:05:08;1.33;;;1.23;;
8183;SDS011;4133;48.752;9.088;2022-09-02T10:07:41;2.42;;;1.27;;
8183;SDS011;4133;48.752;9.088;2022-09-02T10:10:21;1.30;;;1.20;;
8183;SDS011;4133;48.752;9.088;2022-09-02T10:12:49;1.80;;;1.08;;
8183;SDS011;4133;48.752;9.088;2022-09-02T10:15:18;1.55;;;1.17;;
8183;SDS011;4133;48.752;9.088;2022-09-02T10:17:50;4.63;;;1.05;;
8183;SDS011;4133;48.752;9.088;2022-09-02T10:28:09;6.70;;;1.30;;
8183;SDS011;4133;48.752;9.088;2022-09-02T10:38:55;1.42;;;1.02;;
8183;SDS011;4133;48.752;9.088;2022-09-02T10:46:03;2.25;;;1.00;;
8183;SDS011;4133;48.752;9.088;2022-09-02T10:56:22;2.45;;;0.98;;
8183;SDS011;4133;48.752;9.088;2022-09-02T10:58:58;1.27;;;1.00;;
8183;SDS011;4133;48.752;9.088;2022-09-02T11:01:28;1.58;;;0.73;;
8183;SDS011;4133;48.752;9.088;2022-09-02T11:04:15;1.25;;;1.00;;
8183;SDS011;4133;48.752;9.088;2022-09-02T11:06:46;1.45;;;1.00;;
8183;SDS011;4133;48.752;9.088;2022-09-02T11:14:31;0.85;;;0.80;;
8183;SDS011;4133;48.752;9.088;2022-09-02T11:19:34;1.13;;;0.90;;
8183;SDS011;4133;48.752;9.088;2022-09-02T11:24:30;1.05;;;1.00;;
8183;SDS011;4133;48.752;9.088;2022-09-02T11:37:05;2.55;;;1.10;;
8183;SDS011;4133;48.752;9.088;2022-09-02T11:39:42;3.45;;;1.17;;
8183;SDS011;4133;48.752;9.088;2022-09-02T11:49:59;2.60;;;1.10;;
8183;SDS011;4133;48.752;9.088;2022-09-02T11:57:41;1.58;;;1.00;;
8183;SDS011;4133;48.752;9.088;2022-09-02T12:13:06;2.83;;;1.05;;
8183;SDS011;4133;48.752;9.088;2022-09-02T12:15:33;3.55;;;1.02;;
8183;SDS011;4133;48.752;9.088;2022-09-02T12:18:09;3.35;;;0.90;;
8183;SDS011;4133;48.752;9.088;2022-09-02T12:23:07;2.83;;;0.73;;
8183;SDS011;4133;48.752;9.088;2022-09-02T12:25:35;1.10;;;1.00;;
8183;SDS011;4133;48.752;9.088;2022-09-02T12:33:32;1.08;;;0.98;;
8183;SDS011;4133;48.752;9.088;2022-09-02T12:35:59;1.52;;;1.10;;
8183;SDS011;4133;48.752;9.088;2022-09-02T12:45:59;1.20;;;1.10;;
8183;SDS011;4133;48.752;9.088;2022-09-02T12:48:27;1.42;;;0.90;;
8183;SDS011;4133;48.752;9.088;2022-09-02T12:50:59;3.65;;;1.17;;
8183;SDS011;4133;48.752;9.088;2022-09-02T12:53:28;1.02;;;1.00;;
8183;SDS011;4133;48.752;9.088;2022-09-02T12:58:38;3.25;;;1.15;;
8183;SDS011;4133;48.752;9.088;2022-09-02T13:01:17;4.07;;;0.98;;
8183;SDS011;4133;48.752;9.088;2022-09-02T13:12:15;1.48;;;1.13;;
8183;SDS011;4133;48.752;9.088;2022-09-02T13:28:52;1.58;;;1.00;;
8183;SDS011;4133;48.752;9.088;2022-09-02T13:31:25;3.63;;;1.00;;
8183;SDS011;4133;48.752;9.088;2022-09-02T13:34:04;1.33;;;0.90;;
8183;SDS011;4133;48.752;9.088;2022-09-02T13:36:49;1.42;;;1.00;;
8183;SDS011;4133;48.752;9.088;2022-09-02T13:41:44;2.67;;;1.02;;
8183;SDS011;4133;48.752;9.088;2022-09-02T13:44:11;4.80;;;1.10;;
8183;SDS011;4133;48.752;9.088;2022-09-02T13:46:41;1.20;;;1.10;;
8183;SDS011;4133;48.752;9.088;2022-09-02T13:49:16;2.92;;;1.00;;
8183;SDS011;4133;48.752;9.088;2022-09-02T13:51:42;1.80;;;0.90;;
8183;SDS011;4133;48.752;9.088;2022-09-02T13:54:09;2.40;;;1.10;;
8183;SDS011;4133;48.752;9.088;2022-09-02T13:56:38;1.67;;;1.00;;
8183;SDS011;4133;48.752;9.088;2022-09-02T13:59:04;1.50;;;1.20;;
8183;SDS011;4133;48.752;9.088;2022-09-02T14:01:35;2.90;;;1.15;;
8183;SDS011;4133;48.752;9.088;2022-09-02T14:04:13;1.95;;;1.30;;
8183;SDS011;4133;48.752;9.088;2022-09-02T14:06:41;3.22;;;1.15;;
8183;SDS011;4133;48.752;9.088;2022-09-02T14:09:30;2.40;;;1.10;;
8183;SDS011;4133;48.752;9.088;2022-09-02T14:11:56;1.92;;;1.10;;
8183;SDS011;4133;48.752;9.088;2022-09-02T14:14:23;2.78;;;1.10;;
8183;SDS011;4133;48.752;9.088;2022-09-02T14:16:49;1.40;;;1.10;;
8183;SDS011;4133;48.752;9.088;2022-09-02T14:21:46;1.52;;;1.20;;
8183;SDS011;4133;48.752;9.088;2022-09-02T14:24:14;2.55;;;1.15;;
8183;SDS011;4133;48.752;9.088;2022-09-02T14:26:44;1.25;;;0.93;;
8183;SDS011;4133;48.752;9.088;2022-09-02T14:29:11;3.65;;;1.30;;
8183;SDS011;4133;48.752;9.088;2022-09-02T14:31:38;2.05;;;1.10;;
8183;SDS011;4133;48.752;9.088;2022-09-02T14:36:52;3.20;;;1.00;;
8183;SDS011;4133;48.752;9.088;2022-09-02T14:39:18;2.67;;;1.25;;
8183;SDS011;4133;48.752;9.088;2022-09-02T14:41:54;3.03;;;1.27;;
8183;SDS011;4133;48.752;9.088;2022-09-02T14:44:24;1.63;;;1.20;;
8183;SDS011;4133;48.752;9.088;2022-09-02T14:46:56;1.98;;;1.27;;
8183;SDS011;4133;48.752;9.088;2022-09-02T14:49:30;2.17;;;1.15;;
8183;SDS011;4133;48.752;9.088;2022-09-02T14:51:57;2.67;;;1.10;;
8183;SDS011;4133;48.752;9.088;2022-09-02T14:54:34;1.95;;;0.90;;
8183;SDS011;4133;48.752;9.088;2022-09-02T14:57:01;2.33;;;1.30;;
8183;SDS011;4133;48.752;9.088;2022-09-02T14:59:27;1.67;;;1.30;;
8183;SDS011;4133;48.752;9.088;2022-09-02T15:01:53;4.55;;;1.15;;
8183;SDS011;4133;48.752;9.088;2022-09-02T15:04:20;3.78;;;1.00;;
8183;SDS011;4133;48.752;9.088;2022-09-02T15:06:52;1.27;;;1.17;;
8183;SDS011;4133;48.752;9.088;2022-09-02T15:09:18;1.38;;;1.25;;
8183;SDS011;4133;48.752;9.088;2022-09-02T15:11:47;1.25;;;1.08;;
8183;SDS011;4133;48.752;9.088;2022-09-02T15:14:14;3.15;;;1.00;;
8183;SDS011;4133;48.752;9.088;2022-09-02T15:16:40;2.60;;;1.13;;
8183;SDS011;4133;48.752;9.088;2022-09-02T15:19:06;1.08;;;1.00;;
8183;SDS011;4133;48.752;9.088;2022-09-02T15:21:32;1.35;;;1.00;;
8183;SDS011;4133;48.752;9.088;2022-09-02T15:23:58;1.88;;;1.05;;
8183;SDS011;4133;48.752;9.088;2022-09-02T15:26:24;1.95;;;1.00;;
8183;SDS011;4133;48.752;9.088;2022-09-02T15:28:50;1.02;;;0.93;;
8183;SDS011;4133;48.752;9.088;2022-09-02T15:31:19;2.60;;;1.20;;
8183;SDS011;4133;48.752;9.088;2022-09-02T15:33:49;0.98;;;0.93;;
8183;SDS011;4133;48.752;9.088;2022-09-02T15:36:15;5.07;;;1.17;;
8183;SDS011;4133;48.752;9.088;2022-09-02T15:38:42;3.17;;;1.17;;
8183;SDS011;4133;48.752;9.088;2022-09-02T15:41:21;5.05;;;1.10;;
8183;SDS011;4133;48.752;9.088;2022-09-02T15:43:47;4.20;;;1.02;;
8183;SDS011;4133;48.752;9.088;2022-09-02T15:46:21;2.70;;;1.10;;
8183;SDS011;4133;48.752;9.088;2022-09-02T15:48:48;0.90;;;0.90;;
8183;SDS011;4133;48.752;9.088;2022-09-02T15:51:14;2.47;;;1.00;;
8183;SDS011;4133;48.752;9.088;2022-09-02T15:53:40;3.80;;;1.40;;
8183;SDS011;4133;48.752;9.088;2022-09-02T15:56:17;1.63;;;1.00;;
8183;SDS011;4133;48.752;9.088;2022-09-02T15:58:44;1.90;;;1.20;;
8183;SDS011;4133;48.752;9.088;2022-09-02T16:01:10;1.08;;;1.00;;
8183;SDS011;4133;48.752;9.088;2022-09-02T16:03:36;4.15;;;1.95;;
8183;SDS011;4133;48.752;9.088;2022-09-02T16:12:10;1.20;;;1.10;;
8183;SDS011;4133;48.752;9.088;2022-09-02T16:14:36;2.58;;;1.00;;
8183;SDS011;4133;48.752;9.088;2022-09-02T16:17:02;1.48;;;1.17;;
8183;SDS011;4133;48.752;9.088;2022-09-02T16:19:28;2.42;;;1.13;;
8183;SDS011;4133;48.752;9.088;2022-09-02T16:21:54;1.38;;;1.10;;
8183;SDS011;4133;48.752;9.088;2022-09-02T16:24:20;1.50;;;1.10;;
8183;SDS011;4133;48.752;9.088;2022-09-02T16:26:47;2.28;;;1.10;;
8183;SDS011;4133;48.752;9.088;2022-09-02T16:29:14;3.22;;;1.10;;
8183;SDS011;4133;48.752;9.088;2022-09-02T16:31:41;2.83;;;0.95;;
8183;SDS011;4133;48.752;9.088;2022-09-02T16:34:11;3.72;;;1.13;;
8183;SDS011;4133;48.752;9.088;2022-09-02T16:36:38;3.75;;;1.20;;
8183;SDS011;4133;48.752;9.088;2022-09-02T16:39:05;3.55;;;1.05;;
8183;SDS011;4133;48.752;9.088;2022-09-02T16:41:33;3.80;;;0.88;;
8183;SDS011;4133;48.752;9.088;2022-09-02T16:44:00;2.60;;;1.00;;
8183;SDS011;4133;48.752;9.088;2022-09-02T16:46:27;1.45;;;1.13;;
8183;SDS011;4133;48.752;9.088;2022-09-02T16:48:53;2.58;;;1.20;;
8183;SDS011;4133;48.752;9.088;2022-09-02T16:51:20;4.63;;;1.08;;
8183;SDS011;4133;48.752;9.088;2022-09-02T16:53:46;1.38;;;1.10;;
8183;SDS011;4133;48.752;9.088;2022-09-02T16:56:17;3.00;;;1.00;;
8183;SDS011;4133;48.752;9.088;2022-09-02T16:58:44;1.92;;;1.02;;
8183;SDS011;4133;48.752;9.088;2022-09-02T17:01:10;1.33;;;1.10;;
8183;SDS011;4133;48.752;9.088;2022-09-02T17:03:37;1.10;;;1.00;;
8183;SDS011;4133;48.752;9.088;2022-09-02T17:06:07;0.90;;;0.90;;
8183;SDS011;4133;48.752;9.088;2022-09-02T17:08:33;1.58;;;1.10;;
8183;SDS011;4133;48.752;9.088;2022-09-02T17:13:52;3.03;;;1.17;;
8183;SDS011;4133;48.752;9.088;2022-09-02T17:16:20;2.15;;;0.80;;
8183;SDS011;4133;48.752;9.088;2022-09-02T17:18:46;4.68;;;1.40;;
8183;SDS011;4133;48.752;9.088;2022-09-02T17:21:14;1.70;;;1.00;;
8183;SDS011;4133;48.752;9.088;2022-09-02T17:23:41;1.38;;;1.00;;
8183;SDS011;4133;48.752;9.088;2022-09-02T17:26:08;2.65;;;1.02;;
8183;SDS011;4133;48.752;9.088;2022-09-02T17:28:34;1.35;;;0.90;;
8183;SDS011;4133;48.752;9.088;2022-09-02T17:31:02;2.25;;;1.02;;
8183;SDS011;4133;48.752;9.088;2022-09-02T17:33:37;1.25;;;0.93;;
8183;SDS011;4133;48.752;9.088;2022-09-02T17:36:03;1.65;;;1.20;;
8183;SDS011;4133;48.752;9.088;2022-09-02T17:38:30;2.90;;;1.08;;
8183;SDS011;4133;48.752;9.088;2022-09-02T17:40:56;1.13;;;1.02;;
8183;SDS011;4133;48.752;9.088;2022-09-02T17:43:40;2.80;;;1.50;;
8183;SDS011;4133;48.752;9.088;2022-09-02T17:46:06;3.10;;;1.20;;
8183;SDS011;4133;48.752;9.088;2022-09-02T17:48:33;1.65;;;1.13;;
8183;SDS011;4133;48.752;9.088;2022-09-02T17:50:59;1.48;;;1.13;;
8183;SDS011;4133;48.752;9.088;2022-09-02T17:53:26;2.55;;;1.40;;
8183;SDS011;4133;48.752;9.088;2022-09-02T17:55:54;2.50;;;1.10;;
8183;SDS011;4133;48.752;9.088;2022-09-02T17:58:21;4.07;;;1.20;;